sensor_id;sensor_type;location;lat;lon;timestamp;P1;durP1;ratioP1;P2;durP2;ratioP2
36371;SDS011;22398;51.346;12.372;2023-03-01T00:01:11;24.38;;;10.13;;
36371;SDS011;22398;51.346;12.372;2023-03-01T00:06:16;20.30;;;9.18;;
36371;SDS011;22398;51.346;12.372;2023-03-01T00:11:22;15.77;;;8.45;;
36371;SDS011;22398;51.346;12.372;2023-03-01T00:16:27;25.13;;;10.25;;
36371;SDS011;22398;51.346;12.372;2023-03-01T00:21:32;21.40;;;8.88;;
36371;SDS011;22398;51.346;12.372;2023-03-01T00:26:38;21.60;;;8.85;;
36371;SDS011;22398;51.346;12.372;2023-03-01T00:31:41;24.95;;;9.18;;
36371;SDS011;22398;51.346;12.372;2023-03-01T00:36:44;16.17;;;8.05;;
36371;SDS011;22398;51.346;12.372;2023-03-01T00:41:49;17.20;;;7.65;;
36371;SDS011;22398;51.346;12.372;2023-03-01T00:46:53;20.33;;;9.13;;
36371;SDS011;22398;51.346;12.372;2023-03-01T00:51:56;17.08;;;9.05;;
36371;SDS011;22398;51.346;12.372;2023-03-01T00:57:01;14.80;;;8.15;;
36371;SDS011;22398;51.346;12.372;2023-03-01T01:02:04;19.83;;;9.33;;
36371;SDS011;22398;51.346;12.372;2023-03-01T01:07:07;21.63;;;8.57;;
36371;SDS011;22398;51.346;12.372;2023-03-01T01:12:13;18.40;;;8.15;;
36371;SDS011;22398;51.346;12.372;2023-03-01T01:17:16;14.57;;;7.70;;
36371;SDS011;22398;51.346;12.372;2023-03-01T01:22:20;19.00;;;8.10;;
36371;SDS011;22398;51.346;12.372;2023-03-01T01:27:24;21.40;;;8.43;;
36371;SDS011;22398;51.346;12.372;2023-03-01T01:32:28;18.63;;;8.15;;
36371;SDS011;22398;51.346;12.372;2023-03-01T01:37:31;17.10;;;7.65;;
36371;SDS011;22398;51.346;12.372;2023-03-01T01:42:36;16.88;;;7.65;;
36371;SDS011;22398;51.346;12.372;2023-03-01T01:47:39;12.67;;;6.37;;
36371;SDS011;22398;51.346;12.372;2023-03-01T01:52:43;21.40;;;7.65;;
36371;SDS011;22398;51.346;12.372;2023-03-01T01:57:49;18.10;;;7.70;;
36371;SDS011;22398;51.346;12.372;2023-03-01T02:02:56;16.52;;;7.60;;
36371;SDS011;22398;51.346;12.372;2023-03-01T02:08:02;22.20;;;8.30;;
36371;SDS011;22398;51.346;12.372;2023-03-01T02:13:08;19.52;;;9.32;;
36371;SDS011;22398;51.346;12.372;2023-03-01T02:18:12;15.73;;;7.28;;
36371;SDS011;22398;51.346;12.372;2023-03-01T02:23:19;16.63;;;7.80;;
36371;SDS011;22398;51.346;12.372;2023-03-01T02:28:26;19.20;;;7.75;;
36371;SDS011;22398;51.346;12.372;2023-03-01T02:33:32;19.92;;;7.70;;
36371;SDS011;22398;51.346;12.372;2023-03-01T02:43:42;20.20;;;7.72;;
36371;SDS011;22398;51.346;12.372;2023-03-01T02:48:47;16.75;;;8.23;;
36371;SDS011;22398;51.346;12.372;2023-03-01T02:53:55;20.77;;;7.82;;
36371;SDS011;22398;51.346;12.372;2023-03-01T02:59:05;19.02;;;8.00;;
36371;SDS011;22398;51.346;12.372;2023-03-01T03:04:10;22.73;;;8.88;;
36371;SDS011;22398;51.346;12.372;2023-03-01T03:09:20;18.15;;;7.40;;
36371;SDS011;22398;51.346;12.372;2023-03-01T03:14:25;17.92;;;8.10;;
36371;SDS011;22398;51.346;12.372;2023-03-01T03:19:29;18.58;;;6.93;;
36371;SDS011;22398;51.346;12.372;2023-03-01T03:24:33;22.05;;;7.88;;
36371;SDS011;22398;51.346;12.372;2023-03-01T03:29:41;20.02;;;7.65;;
36371;SDS011;22398;51.346;12.372;2023-03-01T03:34:44;20.42;;;9.35;;
36371;SDS011;22398;51.346;12.372;2023-03-01T03:39:47;25.85;;;8.77;;
36371;SDS011;22398;51.346;12.372;2023-03-01T03:44:53;16.15;;;7.43;;
36371;SDS011;22398;51.346;12.372;2023-03-01T03:49:56;18.20;;;7.22;;
36371;SDS011;22398;51.346;12.372;2023-03-01T03:54:59;23.83;;;8.27;;
36371;SDS011;22398;51.346;12.372;2023-03-01T04:00:05;17.40;;;8.52;;
36371;SDS011;22398;51.346;12.372;2023-03-01T04:05:16;27.63;;;9.32;;
36371;SDS011;22398;51.346;12.372;2023-03-01T04:10:21;18.70;;;7.57;;
36371;SDS011;22398;51.346;12.372;2023-03-01T04:15:27;19.92;;;8.50;;
36371;SDS011;22398;51.346;12.372;2023-03-01T04:20:32;19.95;;;7.78;;
36371;SDS011;22398;51.346;12.372;2023-03-01T04:25:37;17.48;;;8.02;;
36371;SDS011;22398;51.346;12.372;2023-03-01T04:30:43;19.80;;;7.53;;
36371;SDS011;22398;51.346;12.372;2023-03-01T04:35:46;26.83;;;9.10;;
36371;SDS011;22398;51.346;12.372;2023-03-01T04:40:51;14.13;;;7.83;;
36371;SDS011;22398;51.346;12.372;2023-03-01T04:45:55;24.45;;;8.40;;
36371;SDS011;22398;51.346;12.372;2023-03-01T04:51:04;19.90;;;8.70;;
36371;SDS011;22398;51.346;12.372;2023-03-01T04:56:09;16.27;;;8.40;;
36371;SDS011;22398;51.346;12.372;2023-03-01T05:01:15;23.30;;;9.05;;
36371;SDS011;22398;51.346;12.372;2023-03-01T05:06:20;24.85;;;10.00;;
36371;SDS011;22398;51.346;12.372;2023-03-01T05:11:23;25.15;;;8.90;;
36371;SDS011;22398;51.346;12.372;2023-03-01T05:16:28;22.80;;;8.65;;
36371;SDS011;22398;51.346;12.372;2023-03-01T05:21:36;21.13;;;9.10;;
36371;SDS011;22398;51.346;12.372;2023-03-01T05:27:00;20.77;;;8.98;;
36371;SDS011;22398;51.346;12.372;2023-03-01T05:32:06;24.92;;;9.35;;
36371;SDS011;22398;51.346;12.372;2023-03-01T05:37:10;17.23;;;8.68;;
36371;SDS011;22398;51.346;12.372;2023-03-01T05:42:13;19.65;;;8.38;;
36371;SDS011;22398;51.346;12.372;2023-03-01T05:47:18;23.25;;;9.25;;
36371;SDS011;22398;51.346;12.372;2023-03-01T05:52:22;21.40;;;8.88;;
36371;SDS011;22398;51.346;12.372;2023-03-01T05:57:27;20.33;;;9.18;;
36371;SDS011;22398;51.346;12.372;2023-03-01T06:02:32;22.20;;;9.43;;
36371;SDS011;22398;51.346;12.372;2023-03-01T06:07:36;22.90;;;11.00;;
36371;SDS011;22398;51.346;12.372;2023-03-01T06:12:40;21.35;;;9.32;;
36371;SDS011;22398;51.346;12.372;2023-03-01T06:22:50;23.40;;;10.52;;
36371;SDS011;22398;51.346;12.372;2023-03-01T06:27:54;17.17;;;7.40;;
36371;SDS011;22398;51.346;12.372;2023-03-01T06:32:59;23.10;;;9.60;;
36371;SDS011;22398;51.346;12.372;2023-03-01T06:38:04;24.25;;;11.10;;
36371;SDS011;22398;51.346;12.372;2023-03-01T06:43:08;25.20;;;10.45;;
36371;SDS011;22398;51.346;12.372;2023-03-01T06:48:12;23.85;;;10.35;;
36371;SDS011;22398;51.346;12.372;2023-03-01T06:53:16;23.45;;;9.80;;
36371;SDS011;22398;51.346;12.372;2023-03-01T06:58:20;22.23;;;9.68;;
36371;SDS011;22398;51.346;12.372;2023-03-01T07:03:24;22.98;;;9.27;;
36371;SDS011;22398;51.346;12.372;2023-03-01T07:08:27;18.07;;;7.53;;
36371;SDS011;22398;51.346;12.372;2023-03-01T07:13:31;28.27;;;9.27;;
36371;SDS011;22398;51.346;12.372;2023-03-01T07:18:35;21.08;;;9.18;;
36371;SDS011;22398;51.346;12.372;2023-03-01T07:23:39;23.97;;;10.03;;
36371;SDS011;22398;51.346;12.372;2023-03-01T07:28:42;22.98;;;9.18;;
36371;SDS011;22398;51.346;12.372;2023-03-01T07:33:46;21.52;;;10.27;;
36371;SDS011;22398;51.346;12.372;2023-03-01T07:38:50;26.33;;;9.90;;
36371;SDS011;22398;51.346;12.372;2023-03-01T07:44:01;26.15;;;10.45;;
36371;SDS011;22398;51.346;12.372;2023-03-01T07:49:08;20.35;;;9.68;;
36371;SDS011;22398;51.346;12.372;2023-03-01T07:54:12;22.60;;;11.13;;
36371;SDS011;22398;51.346;12.372;2023-03-01T07:59:15;20.98;;;10.20;;
36371;SDS011;22398;51.346;12.372;2023-03-01T08:04:20;23.85;;;11.05;;
36371;SDS011;22398;51.346;12.372;2023-03-01T08:14:27;26.88;;;9.75;;
36371;SDS011;22398;51.346;12.372;2023-03-01T08:19:32;24.77;;;9.45;;
36371;SDS011;22398;51.346;12.372;2023-03-01T08:24:36;21.80;;;9.70;;
36371;SDS011;22398;51.346;12.372;2023-03-01T08:29:39;24.45;;;10.23;;
36371;SDS011;22398;51.346;12.372;2023-03-01T08:34:47;24.52;;;11.18;;
36371;SDS011;22398;51.346;12.372;2023-03-01T08:39:50;22.98;;;11.27;;
36371;SDS011;22398;51.346;12.372;2023-03-01T08:44:53;27.02;;;11.52;;
36371;SDS011;22398;51.346;12.372;2023-03-01T08:49:59;18.90;;;9.93;;
36371;SDS011;22398;51.346;12.372;2023-03-01T08:55:02;24.30;;;11.30;;
36371;SDS011;22398;51.346;12.372;2023-03-01T09:00:07;39.78;;;11.00;;
36371;SDS011;22398;51.346;12.372;2023-03-01T09:05:13;25.17;;;12.02;;
36371;SDS011;22398;51.346;12.372;2023-03-01T09:10:18;27.00;;;12.57;;
36371;SDS011;22398;51.346;12.372;2023-03-01T09:15:21;25.08;;;10.88;;
36371;SDS011;22398;51.346;12.372;2023-03-01T09:20:26;29.02;;;10.70;;
36371;SDS011;22398;51.346;12.372;2023-03-01T09:25:30;26.40;;;11.13;;
36371;SDS011;22398;51.346;12.372;2023-03-01T09:30:33;23.08;;;10.65;;
36371;SDS011;22398;51.346;12.372;2023-03-01T09:35:38;27.83;;;12.27;;
36371;SDS011;22398;51.346;12.372;2023-03-01T09:40:47;24.02;;;11.43;;
36371;SDS011;22398;51.346;12.372;2023-03-01T09:45:51;94.45;;;39.80;;
36371;SDS011;22398;51.346;12.372;2023-03-01T09:50:59;26.48;;;13.38;;
36371;SDS011;22398;51.346;12.372;2023-03-01T09:56:11;28.17;;;11.68;;
36371;SDS011;22398;51.346;12.372;2023-03-01T10:01:32;22.92;;;10.88;;
36371;SDS011;22398;51.346;12.372;2023-03-01T10:06:39;24.85;;;11.20;;
36371;SDS011;22398;51.346;12.372;2023-03-01T10:11:53;26.48;;;10.73;;
36371;SDS011;22398;51.346;12.372;2023-03-01T10:16:59;27.73;;;12.68;;
36371;SDS011;22398;51.346;12.372;2023-03-01T10:22:09;27.05;;;10.77;;
36371;SDS011;22398;51.346;12.372;2023-03-01T10:27:19;29.90;;;11.85;;
36371;SDS011;22398;51.346;12.372;2023-03-01T10:32:25;25.60;;;11.18;;
36371;SDS011;22398;51.346;12.372;2023-03-01T10:37:30;21.58;;;11.85;;
36371;SDS011;22398;51.346;12.372;2023-03-01T10:42:34;23.33;;;11.20;;
36371;SDS011;22398;51.346;12.372;2023-03-01T10:47:40;26.33;;;11.65;;
36371;SDS011;22398;51.346;12.372;2023-03-01T10:52:55;23.77;;;11.30;;
36371;SDS011;22398;51.346;12.372;2023-03-01T10:58:06;25.80;;;10.35;;
36371;SDS011;22398;51.346;12.372;2023-03-01T11:03:11;22.08;;;10.15;;
36371;SDS011;22398;51.346;12.372;2023-03-01T11:08:26;25.23;;;11.18;;
36371;SDS011;22398;51.346;12.372;2023-03-01T11:13:35;29.13;;;12.02;;
36371;SDS011;22398;51.346;12.372;2023-03-01T11:18:41;31.45;;;12.77;;
36371;SDS011;22398;51.346;12.372;2023-03-01T11:23:50;24.25;;;11.75;;
36371;SDS011;22398;51.346;12.372;2023-03-01T11:28:53;20.07;;;11.13;;
36371;SDS011;22398;51.346;12.372;2023-03-01T11:33:59;30.58;;;12.95;;
36371;SDS011;22398;51.346;12.372;2023-03-01T11:39:16;30.98;;;12.45;;
36371;SDS011;22398;51.346;12.372;2023-03-01T11:44:26;27.25;;;12.88;;
36371;SDS011;22398;51.346;12.372;2023-03-01T11:55:25;20.42;;;11.30;;
36371;SDS011;22398;51.346;12.372;2023-03-01T12:00:47;25.08;;;11.98;;
36371;SDS011;22398;51.346;12.372;2023-03-01T12:06:15;26.58;;;12.13;;
36371;SDS011;22398;51.346;12.372;2023-03-01T12:11:47;23.23;;;10.90;;
36371;SDS011;22398;51.346;12.372;2023-03-01T12:17:02;26.27;;;10.88;;
36371;SDS011;22398;51.346;12.372;2023-03-01T12:22:29;17.45;;;9.75;;
36371;SDS011;22398;51.346;12.372;2023-03-01T12:27:40;20.05;;;8.93;;
36371;SDS011;22398;51.346;12.372;2023-03-01T12:32:52;17.80;;;9.32;;
36371;SDS011;22398;51.346;12.372;2023-03-01T12:38:08;19.98;;;8.68;;
36371;SDS011;22398;51.346;12.372;2023-03-01T12:43:31;20.50;;;9.23;;
36371;SDS011;22398;51.346;12.372;2023-03-01T12:48:45;17.23;;;10.18;;
36371;SDS011;22398;51.346;12.372;2023-03-01T12:53:54;23.13;;;9.80;;
36371;SDS011;22398;51.346;12.372;2023-03-01T12:59:03;24.48;;;10.27;;
36371;SDS011;22398;51.346;12.372;2023-03-01T13:04:18;25.52;;;10.65;;
36371;SDS011;22398;51.346;12.372;2023-03-01T13:09:30;22.30;;;10.65;;
36371;SDS011;22398;51.346;12.372;2023-03-01T13:14:45;22.55;;;10.48;;
36371;SDS011;22398;51.346;12.372;2023-03-01T13:19:55;19.38;;;9.77;;
36371;SDS011;22398;51.346;12.372;2023-03-01T13:25:01;21.88;;;9.60;;
36371;SDS011;22398;51.346;12.372;2023-03-01T13:35:43;17.13;;;8.73;;
36371;SDS011;22398;51.346;12.372;2023-03-01T13:40:57;16.75;;;8.07;;
36371;SDS011;22398;51.346;12.372;2023-03-01T13:46:07;23.70;;;9.00;;
36371;SDS011;22398;51.346;12.372;2023-03-01T13:51:13;16.17;;;8.18;;
36371;SDS011;22398;51.346;12.372;2023-03-01T13:56:17;15.73;;;7.13;;
36371;SDS011;22398;51.346;12.372;2023-03-01T14:01:26;15.88;;;8.98;;
36371;SDS011;22398;51.346;12.372;2023-03-01T14:06:32;18.70;;;7.25;;
36371;SDS011;22398;51.346;12.372;2023-03-01T14:16:55;16.80;;;6.85;;
36371;SDS011;22398;51.346;12.372;2023-03-01T14:22:12;17.85;;;7.50;;
36371;SDS011;22398;51.346;12.372;2023-03-01T14:27:21;16.90;;;6.90;;
36371;SDS011;22398;51.346;12.372;2023-03-01T14:32:30;15.18;;;7.03;;
36371;SDS011;22398;51.346;12.372;2023-03-01T14:37:35;14.88;;;6.43;;
36371;SDS011;22398;51.346;12.372;2023-03-01T14:42:38;17.80;;;7.28;;
36371;SDS011;22398;51.346;12.372;2023-03-01T14:47:43;13.25;;;5.70;;
36371;SDS011;22398;51.346;12.372;2023-03-01T14:52:48;13.93;;;6.20;;
36371;SDS011;22398;51.346;12.372;2023-03-01T14:57:56;15.65;;;6.78;;
36371;SDS011;22398;51.346;12.372;2023-03-01T15:03:06;15.02;;;6.60;;
36371;SDS011;22398;51.346;12.372;2023-03-01T15:08:16;13.20;;;5.45;;
36371;SDS011;22398;51.346;12.372;2023-03-01T15:13:23;13.05;;;6.25;;
36371;SDS011;22398;51.346;12.372;2023-03-01T15:18:30;13.18;;;6.15;;
36371;SDS011;22398;51.346;12.372;2023-03-01T15:23:34;14.13;;;6.43;;
36371;SDS011;22398;51.346;12.372;2023-03-01T15:28:42;13.43;;;5.43;;
36371;SDS011;22398;51.346;12.372;2023-03-01T15:33:58;14.95;;;6.07;;
36371;SDS011;22398;51.346;12.372;2023-03-01T15:44:39;18.63;;;6.40;;
36371;SDS011;22398;51.346;12.372;2023-03-01T15:49:50;15.00;;;5.55;;
36371;SDS011;22398;51.346;12.372;2023-03-01T15:54:59;13.63;;;4.68;;
36371;SDS011;22398;51.346;12.372;2023-03-01T16:00:04;11.60;;;5.28;;
36371;SDS011;22398;51.346;12.372;2023-03-01T16:05:17;11.80;;;5.05;;
36371;SDS011;22398;51.346;12.372;2023-03-01T16:10:23;12.27;;;5.65;;
36371;SDS011;22398;51.346;12.372;2023-03-01T16:15:27;15.27;;;6.15;;
36371;SDS011;22398;51.346;12.372;2023-03-01T16:20:35;13.43;;;5.63;;
36371;SDS011;22398;51.346;12.372;2023-03-01T16:25:38;16.60;;;6.18;;
36371;SDS011;22398;51.346;12.372;2023-03-01T16:30:45;23.20;;;5.93;;
36371;SDS011;22398;51.346;12.372;2023-03-01T16:35:52;11.18;;;5.40;;
36371;SDS011;22398;51.346;12.372;2023-03-01T16:40:55;11.40;;;6.13;;
36371;SDS011;22398;51.346;12.372;2023-03-01T16:45:59;15.27;;;5.50;;
36371;SDS011;22398;51.346;12.372;2023-03-01T16:51:04;13.88;;;6.30;;
36371;SDS011;22398;51.346;12.372;2023-03-01T16:56:09;13.50;;;5.95;;
36371;SDS011;22398;51.346;12.372;2023-03-01T17:01:14;12.10;;;5.25;;
36371;SDS011;22398;51.346;12.372;2023-03-01T17:06:20;12.20;;;5.18;;
36371;SDS011;22398;51.346;12.372;2023-03-01T17:11:26;13.55;;;5.93;;
36371;SDS011;22398;51.346;12.372;2023-03-01T17:16:31;11.95;;;5.50;;
36371;SDS011;22398;51.346;12.372;2023-03-01T17:21:36;15.40;;;5.78;;
36371;SDS011;22398;51.346;12.372;2023-03-01T17:26:40;16.60;;;6.75;;
36371;SDS011;22398;51.346;12.372;2023-03-01T17:31:43;17.25;;;6.53;;
36371;SDS011;22398;51.346;12.372;2023-03-01T17:36:48;13.32;;;6.45;;
36371;SDS011;22398;51.346;12.372;2023-03-01T17:41:53;19.13;;;7.43;;
36371;SDS011;22398;51.346;12.372;2023-03-01T17:46:57;17.08;;;5.90;;
36371;SDS011;22398;51.346;12.372;2023-03-01T17:52:02;16.10;;;6.53;;
36371;SDS011;22398;51.346;12.372;2023-03-01T17:57:05;16.43;;;7.07;;
36371;SDS011;22398;51.346;12.372;2023-03-01T18:02:09;16.48;;;5.57;;
36371;SDS011;22398;51.346;12.372;2023-03-01T18:07:15;13.35;;;5.47;;
36371;SDS011;22398;51.346;12.372;2023-03-01T18:12:19;15.65;;;6.50;;
36371;SDS011;22398;51.346;12.372;2023-03-01T18:17:22;22.05;;;5.60;;
36371;SDS011;22398;51.346;12.372;2023-03-01T18:22:28;13.25;;;5.45;;
36371;SDS011;22398;51.346;12.372;2023-03-01T18:27:32;12.68;;;6.50;;
36371;SDS011;22398;51.346;12.372;2023-03-01T18:32:37;17.63;;;6.57;;
36371;SDS011;22398;51.346;12.372;2023-03-01T18:37:42;16.63;;;5.82;;
36371;SDS011;22398;51.346;12.372;2023-03-01T18:42:46;11.48;;;6.07;;
36371;SDS011;22398;51.346;12.372;2023-03-01T18:47:51;16.03;;;6.37;;
36371;SDS011;22398;51.346;12.372;2023-03-01T18:52:56;16.50;;;6.40;;
36371;SDS011;22398;51.346;12.372;2023-03-01T18:58:00;19.27;;;6.80;;
36371;SDS011;22398;51.346;12.372;2023-03-01T19:03:03;17.60;;;7.18;;
36371;SDS011;22398;51.346;12.372;2023-03-01T19:08:08;16.10;;;6.90;;
36371;SDS011;22398;51.346;12.372;2023-03-01T19:13:12;13.93;;;6.47;;
36371;SDS011;22398;51.346;12.372;2023-03-01T19:18:16;14.60;;;6.38;;
36371;SDS011;22398;51.346;12.372;2023-03-01T19:23:21;13.45;;;5.68;;
36371;SDS011;22398;51.346;12.372;2023-03-01T19:28:25;13.90;;;6.07;;
36371;SDS011;22398;51.346;12.372;2023-03-01T19:33:29;13.05;;;5.95;;
36371;SDS011;22398;51.346;12.372;2023-03-01T19:38:35;14.87;;;5.57;;
36371;SDS011;22398;51.346;12.372;2023-03-01T19:43:40;13.20;;;5.20;;
36371;SDS011;22398;51.346;12.372;2023-03-01T19:48:44;13.60;;;5.97;;
36371;SDS011;22398;51.346;12.372;2023-03-01T19:58:55;10.50;;;5.22;;
36371;SDS011;22398;51.346;12.372;2023-03-01T20:04:01;13.23;;;5.75;;
36371;SDS011;22398;51.346;12.372;2023-03-01T20:09:07;14.77;;;6.43;;
36371;SDS011;22398;51.346;12.372;2023-03-01T20:14:22;14.45;;;5.65;;
36371;SDS011;22398;51.346;12.372;2023-03-01T20:19:25;11.07;;;6.00;;
36371;SDS011;22398;51.346;12.372;2023-03-01T20:24:30;12.55;;;5.30;;
36371;SDS011;22398;51.346;12.372;2023-03-01T20:29:34;13.98;;;5.50;;
36371;SDS011;22398;51.346;12.372;2023-03-01T20:34:38;11.63;;;5.30;;
36371;SDS011;22398;51.346;12.372;2023-03-01T20:39:43;11.35;;;5.10;;
36371;SDS011;22398;51.346;12.372;2023-03-01T20:44:46;12.00;;;4.63;;
36371;SDS011;22398;51.346;12.372;2023-03-01T20:49:50;11.60;;;4.75;;
36371;SDS011;22398;51.346;12.372;2023-03-01T20:54:55;12.48;;;5.15;;
36371;SDS011;22398;51.346;12.372;2023-03-01T20:59:58;7.47;;;4.20;;
36371;SDS011;22398;51.346;12.372;2023-03-01T21:05:02;14.27;;;5.55;;
36371;SDS011;22398;51.346;12.372;2023-03-01T21:10:08;16.08;;;5.25;;
36371;SDS011;22398;51.346;12.372;2023-03-01T21:15:12;12.43;;;5.88;;
36371;SDS011;22398;51.346;12.372;2023-03-01T21:20:29;10.23;;;5.15;;
36371;SDS011;22398;51.346;12.372;2023-03-01T21:25:34;11.10;;;5.00;;
36371;SDS011;22398;51.346;12.372;2023-03-01T21:30:37;13.10;;;5.97;;
36371;SDS011;22398;51.346;12.372;2023-03-01T21:35:40;14.40;;;6.05;;
36371;SDS011;22398;51.346;12.372;2023-03-01T21:40:45;16.70;;;5.85;;
36371;SDS011;22398;51.346;12.372;2023-03-01T21:45:49;12.70;;;6.23;;
36371;SDS011;22398;51.346;12.372;2023-03-01T21:50:56;14.38;;;5.75;;
36371;SDS011;22398;51.346;12.372;2023-03-01T21:56:01;14.77;;;6.30;;
36371;SDS011;22398;51.346;12.372;2023-03-01T22:01:05;16.43;;;5.87;;
36371;SDS011;22398;51.346;12.372;2023-03-01T22:06:11;12.27;;;6.05;;
36371;SDS011;22398;51.346;12.372;2023-03-01T22:16:36;14.37;;;5.83;;
36371;SDS011;22398;51.346;12.372;2023-03-01T22:21:42;18.75;;;6.47;;
36371;SDS011;22398;51.346;12.372;2023-03-01T22:26:47;11.48;;;6.15;;
36371;SDS011;22398;51.346;12.372;2023-03-01T22:31:53;15.10;;;6.53;;
36371;SDS011;22398;51.346;12.372;2023-03-01T22:36:58;14.38;;;5.47;;
36371;SDS011;22398;51.346;12.372;2023-03-01T22:42:01;14.07;;;6.30;;
36371;SDS011;22398;51.346;12.372;2023-03-01T22:52:11;12.70;;;5.93;;
36371;SDS011;22398;51.346;12.372;2023-03-01T22:57:15;15.80;;;6.63;;
36371;SDS011;22398;51.346;12.372;2023-03-01T23:02:20;15.02;;;6.85;;
36371;SDS011;22398;51.346;12.372;2023-03-01T23:07:26;20.58;;;6.97;;
36371;SDS011;22398;51.346;12.372;2023-03-01T23:12:30;14.20;;;6.60;;
36371;SDS011;22398;51.346;12.372;2023-03-01T23:17:38;15.68;;;7.15;;
36371;SDS011;22398;51.346;12.372;2023-03-01T23:22:46;13.20;;;6.40;;
36371;SDS011;22398;51.346;12.372;2023-03-01T23:27:49;15.63;;;7.10;;
36371;SDS011;22398;51.346;12.372;2023-03-01T23:32:55;15.80;;;6.82;;
36371;SDS011;22398;51.346;12.372;2023-03-01T23:38:00;18.95;;;6.72;;
36371;SDS011;22398;51.346;12.372;2023-03-01T23:43:04;18.80;;;7.22;;
36371;SDS011;22398;51.346;12.372;2023-03-01T23:48:12;22.13;;;7.60;;
36371;SDS011;22398;51.346;12.372;2023-03-01T23:53:16;14.40;;;6.75;;
36371;SDS011;22398;51.346;12.372;2023-03-01T23:58:21;15.60;;;6.45;;
